createdAt,value
2022-08-28T00:00:18.277Z,0.00
2022-08-28T00:05:18.205Z,0.00
2022-08-28T00:10:18.144Z,0.00
2022-08-28T00:15:18.080Z,0.00
2022-08-28T00:20:18.022Z,0.00
2022-08-28T00:25:17.962Z,0.00
2022-08-28T00:30:17.866Z,0.00
2022-08-28T00:35:17.808Z,0.00
2022-08-28T00:40:17.836Z,0.00
2022-08-28T00:45:17.685Z,0.00
2022-08-28T00:50:17.612Z,0.00
2022-08-28T00:55:17.543Z,0.00
2022-08-28T01:00:17.477Z,0.00
2022-08-28T01:05:17.413Z,0.00
2022-08-28T01:10:17.344Z,0.00
2022-08-28T01:15:17.279Z,0.00
2022-08-28T01:20:17.203Z,0.00
2022-08-28T01:25:17.143Z,0.00
2022-08-28T01:30:17.078Z,0.00
2022-08-28T01:35:17.016Z,0.00
2022-08-28T01:40:16.972Z,0.00
2022-08-28T01:45:16.885Z,0.00
2022-08-28T01:50:16.808Z,0.00
2022-08-28T01:55:16.738Z,0.00
2022-08-28T02:00:16.663Z,0.00
2022-08-28T02:05:16.607Z,0.00
2022-08-28T02:10:16.532Z,0.00
2022-08-28T02:15:16.472Z,0.00
2022-08-28T02:20:16.394Z,0.00
2022-08-28T02:25:16.349Z,0.00
2022-08-28T02:30:16.263Z,0.00
2022-08-28T02:35:16.209Z,0.00
2022-08-28T02:40:16.214Z,0.00
2022-08-28T02:45:16.079Z,0.00
2022-08-28T02:50:16.013Z,0.00
2022-08-28T02:55:15.953Z,0.00
2022-08-28T03:00:15.874Z,0.00
2022-08-28T03:05:15.816Z,0.00
2022-08-28T03:10:15.746Z,0.00
2022-08-28T03:15:15.692Z,0.00
2022-08-28T03:20:15.635Z,0.00
2022-08-28T03:25:15.569Z,0.00
2022-08-28T03:30:15.506Z,0.00
2022-08-28T03:35:15.446Z,0.00
2022-08-28T03:40:15.457Z,0.00
2022-08-28T03:45:15.310Z,0.00
2022-08-28T03:50:15.232Z,0.00
2022-08-28T03:55:15.183Z,0.00
2022-08-28T04:00:15.133Z,0.00
2022-08-28T04:05:15.047Z,0.00
2022-08-28T04:10:14.988Z,0.00
2022-08-28T04:15:14.930Z,0.00
2022-08-28T04:20:14.856Z,5.62
2022-08-28T04:25:14.792Z,5.62
2022-08-28T04:30:14.744Z,11.25
2022-08-28T04:35:14.665Z,16.87
2022-08-28T04:40:14.658Z,22.50
2022-08-28T04:45:14.537Z,28.12
2022-08-28T04:50:14.472Z,33.75
2022-08-28T04:55:14.416Z,39.37
2022-08-28T05:00:14.343Z,39.37
2022-08-28T05:05:14.271Z,45.00
2022-08-28T05:10:14.218Z,50.62
2022-08-28T05:15:14.148Z,56.25
2022-08-28T05:20:14.101Z,61.87
2022-08-28T05:25:14.029Z,73.12
2022-08-28T05:30:13.973Z,78.75
2022-08-28T05:35:13.896Z,84.37
2022-08-28T05:40:13.920Z,101.25
2022-08-28T05:45:13.776Z,112.50
2022-08-28T05:50:13.717Z,129.37
2022-08-28T05:55:13.640Z,185.62
2022-08-28T06:00:13.604Z,236.25
2022-08-28T06:05:13.513Z,202.50
2022-08-28T06:10:13.459Z,219.37
2022-08-28T06:15:13.380Z,281.25
2022-08-28T06:20:13.334Z,264.37
2022-08-28T06:25:13.255Z,275.62
2022-08-28T06:30:13.200Z,320.62
2022-08-28T06:35:13.127Z,354.37
2022-08-28T06:40:13.133Z,500.62
2022-08-28T06:45:12.999Z,765.00
2022-08-28T06:50:12.954Z,568.12
2022-08-28T06:55:12.867Z,517.50
2022-08-28T07:00:12.811Z,528.75
2022-08-28T07:05:12.804Z,607.50
2022-08-28T07:10:12.678Z,613.12
2022-08-28T07:15:12.611Z,461.25
2022-08-28T07:20:12.544Z,461.25
2022-08-28T07:25:12.474Z,652.50
2022-08-28T07:30:12.408Z,1243.12
2022-08-28T07:35:12.340Z,1878.75
2022-08-28T07:40:12.313Z,2345.62
2022-08-28T07:45:12.204Z,2283.75
2022-08-28T07:50:12.155Z,2565.00
2022-08-28T07:55:12.071Z,2086.87
2022-08-28T08:00:12.016Z,3296.25
2022-08-28T08:05:11.953Z,3352.50
2022-08-28T08:10:11.889Z,2356.87
2022-08-28T08:15:11.821Z,1788.75
2022-08-28T08:20:11.768Z,1901.25
2022-08-28T08:25:11.695Z,2351.25
2022-08-28T08:30:11.632Z,4725.00
2022-08-28T08:35:11.570Z,4668.75
2022-08-28T08:40:11.572Z,4303.12
2022-08-28T08:45:11.432Z,4410.00
2022-08-28T08:50:11.382Z,2913.75
2022-08-28T08:55:11.326Z,4387.50
2022-08-28T09:00:15.803Z,4708.12
2022-08-28T09:05:11.204Z,4263.75
2022-08-28T09:10:11.144Z,4336.87
2022-08-28T09:15:11.056Z,4331.25
2022-08-28T09:20:11.009Z,1546.87
2022-08-28T09:25:10.928Z,1389.37
2022-08-28T09:30:10.868Z,1693.12
2022-08-28T09:35:10.799Z,4016.25
2022-08-28T09:40:10.798Z,4156.87
2022-08-28T09:45:10.687Z,3420.00
2022-08-28T09:50:10.616Z,3819.37
2022-08-28T09:55:10.543Z,3729.37
2022-08-28T10:00:10.489Z,3667.50
2022-08-28T10:05:10.416Z,3898.12
2022-08-28T10:10:10.365Z,3819.37
2022-08-28T10:15:10.291Z,3870.00
2022-08-28T10:20:10.236Z,3886.87
2022-08-28T10:25:10.164Z,3555.00
2022-08-28T10:30:13.202Z,3560.62
2022-08-28T10:35:10.033Z,3628.12
2022-08-28T10:40:10.025Z,3234.37
2022-08-28T10:45:09.915Z,641.25
2022-08-28T10:50:09.898Z,596.25
2022-08-28T10:55:09.785Z,579.37
2022-08-28T11:00:09.730Z,579.37
2022-08-28T11:05:09.652Z,568.12
2022-08-28T11:10:09.612Z,551.25
2022-08-28T11:15:09.527Z,528.75
2022-08-28T11:20:09.474Z,523.12
2022-08-28T11:25:09.970Z,511.87
2022-08-28T11:30:09.339Z,511.87
2022-08-28T11:35:09.268Z,506.25
2022-08-28T11:40:09.238Z,489.37
2022-08-28T11:45:09.143Z,483.75
2022-08-28T11:50:09.094Z,461.25
2022-08-28T11:55:09.017Z,455.62
2022-08-28T12:00:08.965Z,1147.50
2022-08-28T12:05:08.885Z,894.37
2022-08-28T12:10:08.826Z,697.50
2022-08-28T12:15:08.750Z,652.50
2022-08-28T12:20:08.699Z,613.12
2022-08-28T12:25:08.611Z,573.75
2022-08-28T12:30:08.556Z,534.37
2022-08-28T12:35:08.494Z,511.87
2022-08-28T12:40:08.550Z,500.62
2022-08-28T12:45:08.362Z,489.37
2022-08-28T12:50:08.318Z,472.50
2022-08-28T12:55:08.221Z,461.25
2022-08-28T13:00:08.162Z,450.00
2022-08-28T13:05:08.090Z,438.75
2022-08-28T13:10:08.033Z,433.12
2022-08-28T13:15:07.972Z,421.87
2022-08-28T13:20:07.897Z,410.62
2022-08-28T13:25:07.826Z,405.00
2022-08-28T13:30:07.770Z,393.75
2022-08-28T13:35:07.697Z,388.12
2022-08-28T13:40:15.998Z,376.87
2022-08-28T13:45:08.580Z,371.25
2022-08-28T13:50:07.491Z,360.00
2022-08-28T13:55:07.421Z,354.37
2022-08-28T14:00:07.360Z,348.75
2022-08-28T14:05:07.292Z,343.12
2022-08-28T14:10:07.240Z,337.50
2022-08-28T14:15:07.161Z,326.25
2022-08-28T14:20:07.092Z,320.62
2022-08-28T14:25:07.025Z,320.62
2022-08-28T14:30:06.958Z,320.62
2022-08-28T14:35:06.888Z,315.00
2022-08-28T14:40:06.934Z,309.37
2022-08-28T14:45:06.752Z,303.75
2022-08-28T14:50:06.753Z,292.50
2022-08-28T14:55:06.633Z,286.87
2022-08-28T15:00:06.568Z,275.62
2022-08-28T15:05:06.496Z,270.00
2022-08-28T15:10:06.455Z,258.75
2022-08-28T15:15:06.382Z,253.12
2022-08-28T15:20:06.325Z,247.50
2022-08-28T15:25:06.250Z,241.87
2022-08-28T15:30:06.192Z,241.87
2022-08-28T15:35:06.123Z,236.25
2022-08-28T15:40:06.125Z,236.25
2022-08-28T15:45:05.999Z,230.62
2022-08-28T15:50:05.939Z,225.00
2022-08-28T15:55:05.872Z,219.37
2022-08-28T16:00:10.139Z,213.75
2022-08-28T16:05:05.762Z,208.12
2022-08-28T16:10:05.702Z,202.50
2022-08-28T16:15:05.633Z,202.50
2022-08-28T16:20:05.568Z,196.87
2022-08-28T16:25:05.510Z,191.25
2022-08-28T16:30:05.497Z,180.00
2022-08-28T16:35:05.375Z,174.37
2022-08-28T16:40:05.415Z,168.75
2022-08-28T16:45:05.261Z,163.12
2022-08-28T16:50:05.210Z,151.87
2022-08-28T16:55:05.127Z,146.25
2022-08-28T17:00:05.085Z,140.62
2022-08-28T17:05:05.009Z,129.37
2022-08-28T17:10:04.969Z,118.12
2022-08-28T17:15:04.876Z,112.50
2022-08-28T17:20:04.829Z,101.25
2022-08-28T17:25:04.743Z,90.00
2022-08-28T17:30:04.890Z,84.37
2022-08-28T17:35:04.616Z,73.12
2022-08-28T17:40:04.621Z,61.87
2022-08-28T17:45:04.487Z,50.62
2022-08-28T17:50:04.442Z,39.37
2022-08-28T17:55:04.364Z,33.75
2022-08-28T18:00:05.172Z,22.50
2022-08-28T18:05:04.301Z,16.87
2022-08-28T18:10:04.182Z,11.25
2022-08-28T18:15:04.096Z,5.62
2022-08-28T18:20:04.052Z,0.00
2022-08-28T18:25:03.979Z,0.00
2022-08-28T18:30:03.914Z,0.00
2022-08-28T18:35:03.836Z,0.00
2022-08-28T18:40:03.791Z,0.00
2022-08-28T18:45:03.719Z,0.00
2022-08-28T18:50:05.154Z,0.00
2022-08-28T18:55:05.111Z,0.00
2022-08-28T19:00:03.510Z,0.00
2022-08-28T19:05:03.461Z,0.00
2022-08-28T19:10:03.390Z,0.00
2022-08-28T19:15:03.324Z,0.00
2022-08-28T19:20:03.266Z,0.00
2022-08-28T19:25:03.192Z,0.00
2022-08-28T19:30:03.128Z,0.00
2022-08-28T19:35:03.062Z,0.00
2022-08-28T19:40:03.048Z,0.00
2022-08-28T19:45:02.933Z,0.00
2022-08-28T19:50:02.880Z,0.00
2022-08-28T19:55:02.804Z,0.00
2022-08-28T20:00:02.793Z,0.00
2022-08-28T20:05:02.672Z,0.00
2022-08-28T20:10:02.615Z,0.00
2022-08-28T20:15:03.672Z,0.00
2022-08-28T20:20:03.459Z,0.00
2022-08-28T20:25:02.396Z,0.00
2022-08-28T20:30:07.125Z,0.00
2022-08-28T20:35:02.264Z,0.00
2022-08-28T20:40:04.507Z,0.00
2022-08-28T20:45:02.140Z,0.00
2022-08-28T20:50:02.072Z,0.00
2022-08-28T20:55:02.008Z,0.00
2022-08-28T21:00:05.467Z,0.00
2022-08-28T21:05:01.958Z,0.00
2022-08-28T21:10:05.108Z,0.00
2022-08-28T21:15:01.759Z,0.00
2022-08-28T21:20:02.881Z,0.00
2022-08-28T21:25:01.620Z,0.00
2022-08-28T21:30:01.562Z,0.00
2022-08-28T21:35:01.502Z,0.00
2022-08-28T21:40:01.524Z,0.00
2022-08-28T21:45:01.370Z,0.00
2022-08-28T21:50:01.300Z,0.00
2022-08-28T21:55:01.250Z,0.00
2022-08-28T22:00:01.179Z,0.00
2022-08-28T22:05:01.108Z,0.00
2022-08-28T22:10:01.045Z,0.00
2022-08-28T22:15:00.991Z,0.00
2022-08-28T22:20:00.921Z,0.00
2022-08-28T22:25:00.863Z,0.00
2022-08-28T22:30:00.779Z,0.00
2022-08-28T22:35:00.733Z,0.00
2022-08-28T22:40:00.693Z,0.00
2022-08-28T22:45:00.598Z,0.00
2022-08-28T22:50:00.516Z,0.00
2022-08-28T22:55:00.455Z,0.00
2022-08-28T23:00:00.382Z,0.00
2022-08-28T23:05:00.323Z,0.00
2022-08-28T23:10:00.251Z,0.00
2022-08-28T23:15:00.190Z,0.00
2022-08-28T23:20:00.149Z,0.00
2022-08-28T23:25:00.058Z,0.00
2022-08-28T23:29:59.987Z,0.00
2022-08-28T23:34:59.928Z,0.00
2022-08-28T23:39:59.880Z,0.00
2022-08-28T23:44:59.806Z,0.00
2022-08-28T23:49:59.731Z,0.00
2022-08-28T23:54:59.665Z,0.00
2022-08-28T23:59:59.587Z,0.00
